Time;durP1;ratioP1;P1;durP2;ratioP2;P2;SDS_P1;SDS_P2;PMS_P1;PMS_P2;Temp;Humidity;BMP_temperature;BMP_pressure;BME280_temperature;BME280_humidity;BME280_pressure;Samples;Min_cycle;Max_cycle;Signal;HPM_P1;HPM_P2
2023/08/30 00:01:21;;;;;;;3.25;1.50;;;15.80;99.90;;;;;;5004283;28;20442;-78
2023/08/30 00:03:47;;;;;;;2.30;1.30;;;15.70;99.90;;;;;;5007897;28;20046;-78
2023/08/30 00:06:15;;;;;;;3.80;1.60;;;15.70;99.90;;;;;;4993949;28;20052;-78
2023/08/30 00:08:42;;;;;;;3.30;1.67;;;15.70;99.90;;;;;;5009330;28;20052;-77
2023/08/30 00:11:09;;;;;;;4.10;2.03;;;15.70;99.90;;;;;;5008969;28;20050;-79
2023/08/30 00:13:35;;;;;;;4.72;1.33;;;15.70;99.90;;;;;;5011060;28;20576;-79
2023/08/30 00:16:02;;;;;;;3.58;1.58;;;15.70;99.90;;;;;;5002803;28;20417;-78
2023/08/30 00:18:30;;;;;;;2.40;1.40;;;15.70;99.90;;;;;;5008617;28;20132;-78
2023/08/30 00:20:57;;;;;;;3.92;1.73;;;15.70;99.90;;;;;;5013473;28;20409;-78
2023/08/30 00:23:24;;;;;;;1.58;1.48;;;15.70;99.90;;;;;;5007394;28;20112;-78
2023/08/30 00:25:51;;;;;;;2.40;1.70;;;15.70;99.90;;;;;;5009722;28;20038;-77
2023/08/30 00:28:18;;;;;;;5.43;1.45;;;15.70;99.90;;;;;;5015065;28;20042;-78
2023/08/30 00:30:45;;;;;;;3.85;2.20;;;15.70;99.90;;;;;;4985770;28;20061;-78
2023/08/30 00:33:12;;;;;;;2.85;1.63;;;15.70;99.90;;;;;;5007476;28;20429;-77
2023/08/30 00:35:38;;;;;;;3.92;1.70;;;15.70;99.90;;;;;;5013447;28;20506;-78
2023/08/30 00:38:05;;;;;;;3.97;2.00;;;15.70;99.90;;;;;;5003403;28;20073;-78
2023/08/30 00:40:39;;;;;;;2.05;1.85;;;15.70;99.90;;;;;;5007421;28;20149;-78
2023/08/30 00:43:07;;;;;;;2.03;1.60;;;15.70;99.90;;;;;;5017357;28;20042;-78
2023/08/30 00:45:38;;;;;;;6.55;2.20;;;15.70;99.90;;;;;;5008635;28;20420;-78
2023/08/30 00:48:05;;;;;;;7.53;2.30;;;15.70;99.90;;;;;;5004700;28;20046;-77
2023/08/30 00:50:34;;;;;;;4.45;2.17;;;15.70;99.90;;;;;;5007764;28;20050;-78
2023/08/30 00:53:05;;;;;;;3.85;1.98;;;15.70;99.90;;;;;;5008899;28;20042;-77
2023/08/30 00:55:35;;;;;;;5.22;2.05;;;15.70;99.90;;;;;;5005968;28;20050;-76
2023/08/30 00:58:02;;;;;;;5.15;2.55;;;15.70;99.90;;;;;;5011044;28;20125;-78
2023/08/30 01:00:30;;;;;;;4.07;2.22;;;15.70;99.90;;;;;;4984880;28;20049;-76
2023/08/30 01:02:57;;;;;;;3.30;2.38;;;15.70;99.90;;;;;;5007965;28;20050;-77
2023/08/30 01:05:24;;;;;;;3.95;2.40;;;15.70;99.90;;;;;;5015555;28;20053;-76
2023/08/30 01:07:51;;;;;;;6.10;2.10;;;15.70;99.90;;;;;;5007384;28;20041;-78
2023/08/30 01:10:27;;;;;;;2.63;1.73;;;15.70;99.90;;;;;;5009243;28;20036;-76
2023/08/30 01:13:05;;;;;;;3.05;1.75;;;15.70;99.90;;;;;;5012767;28;20068;-76
2023/08/30 01:15:33;;;;;;;2.08;1.88;;;15.70;99.90;;;;;;5000406;28;20112;-77
2023/08/30 01:18:02;;;;;;;3.53;2.13;;;15.70;99.90;;;;;;5004859;28;20099;-76
2023/08/30 01:20:29;;;;;;;4.03;2.30;;;15.70;99.90;;;;;;5010571;28;20128;-77
2023/08/30 01:23:20;;;;;;;2.47;2.17;;;15.70;99.90;;;;;;5005806;28;20564;-76
2023/08/30 01:25:57;;;;;;;;;;;15.70;99.90;;;;;;5009955;28;20073;-77
2023/08/30 01:28:26;;;;;;;4.45;2.08;;;15.80;99.90;;;;;;5026150;28;19948;-76
2023/08/30 01:30:54;;;;;;;2.55;2.33;;;15.70;99.90;;;;;;4999024;28;20049;-76
2023/08/30 01:33:22;;;;;;;6.32;2.22;;;15.70;99.90;;;;;;5004604;28;20052;-77
2023/08/30 01:35:49;;;;;;;2.65;1.90;;;15.70;99.90;;;;;;5008725;28;20498;-78
2023/08/30 01:38:16;;;;;;;3.10;1.90;;;15.80;99.90;;;;;;4996216;28;20096;-77
2023/08/30 01:40:45;;;;;;;2.70;1.77;;;15.70;99.90;;;;;;5001976;28;20068;-76
2023/08/30 01:43:14;;;;;;;2.30;2.08;;;15.70;99.90;;;;;;5012655;28;20045;-77
2023/08/30 01:45:43;;;;;;;4.28;2.05;;;15.70;99.90;;;;;;5005848;28;20046;-76
2023/08/30 01:48:14;;;;;;;5.32;2.42;;;15.70;99.90;;;;;;5007761;28;20048;-78
2023/08/30 01:50:43;;;;;;;2.28;2.08;;;15.70;99.90;;;;;;5012929;28;20046;-76
2023/08/30 01:53:13;;;;;;;3.08;2.35;;;15.70;99.90;;;;;;5008482;28;20109;-76
2023/08/30 01:55:40;;;;;;;3.63;2.28;;;15.70;99.90;;;;;;5004169;28;20053;-77
2023/08/30 01:58:08;;;;;;;4.10;2.10;;;15.70;99.90;;;;;;5009867;28;20104;-77
2023/08/30 02:00:36;;;;;;;2.65;2.42;;;15.70;99.90;;;;;;5006089;28;20050;-77
2023/08/30 02:03:13;;;;;;;6.10;2.33;;;15.70;99.90;;;;;;5009465;28;20037;-77
2023/08/30 02:06:08;;;;;;;4.50;2.63;;;15.70;99.90;;;;;;5008390;28;20078;-76
2023/08/30 02:08:44;;;;;;;3.50;3.00;;;15.70;99.90;;;;;;5005642;28;20137;-79
2023/08/30 02:11:19;;;;;;;4.95;2.97;;;15.70;99.90;;;;;;5003632;28;20433;-76
2023/08/30 02:13:46;;;;;;;4.30;2.72;;;15.70;99.90;;;;;;5010403;28;20440;-77
2023/08/30 02:16:14;;;;;;;3.35;2.45;;;15.60;99.90;;;;;;5007121;28;20073;-77
2023/08/30 02:18:41;;;;;;;4.38;2.40;;;15.60;99.90;;;;;;5009273;28;20045;-77
2023/08/30 02:21:08;;;;;;;3.10;2.50;;;15.60;99.90;;;;;;5012029;28;20050;-77
2023/08/30 02:23:35;;;;;;;4.80;2.60;;;15.60;99.90;;;;;;5004924;28;20418;-78
2023/08/30 02:26:03;;;;;;;3.90;2.90;;;15.60;99.90;;;;;;5005077;28;20105;-77
2023/08/30 02:28:29;;;;;;;4.40;2.50;;;15.60;99.90;;;;;;5011383;28;20054;-77
2023/08/30 02:30:56;;;;;;;8.07;2.63;;;15.60;99.90;;;;;;5011883;28;20046;-77
2023/08/30 02:33:23;;;;;;;4.93;2.85;;;15.60;99.90;;;;;;5004245;28;20723;-77
2023/08/30 02:35:50;;;;;;;4.78;2.50;;;15.60;99.90;;;;;;5010262;28;20081;-77
2023/08/30 02:38:17;;;;;;;4.20;3.00;;;15.50;99.90;;;;;;5002804;28;20050;-77
2023/08/30 02:40:44;;;;;;;5.25;2.85;;;15.50;99.90;;;;;;5003905;28;20054;-78
2023/08/30 02:43:10;;;;;;;7.45;3.17;;;15.50;99.90;;;;;;5010479;28;20046;-77
2023/08/30 02:45:37;;;;;;;5.65;2.88;;;15.50;99.90;;;;;;4993455;28;20050;-77
2023/08/30 02:48:04;;;;;;;6.13;2.85;;;15.50;99.90;;;;;;5007320;28;20054;-77
2023/08/30 02:50:31;;;;;;;5.10;2.92;;;15.50;99.90;;;;;;5010509;28;20448;-77
2023/08/30 02:52:58;;;;;;;5.22;2.90;;;15.40;99.90;;;;;;5010127;28;20104;-76
2023/08/30 02:55:24;;;;;;;5.93;3.05;;;15.40;99.90;;;;;;5002340;28;20088;-78
2023/08/30 02:57:51;;;;;;;4.03;2.95;;;15.40;99.90;;;;;;4990628;28;20049;-77
2023/08/30 03:00:18;;;;;;;5.97;3.33;;;15.30;99.90;;;;;;5012401;28;20046;-76
2023/08/30 03:02:45;;;;;;;4.93;3.40;;;15.30;99.90;;;;;;5007929;28;20046;-79
2023/08/30 03:05:12;;;;;;;4.38;3.22;;;15.30;99.90;;;;;;4993543;28;20109;-78
2023/08/30 03:07:38;;;;;;;3.78;3.38;;;15.30;99.90;;;;;;5011487;28;20057;-76
2023/08/30 03:10:06;;;;;;;3.28;2.97;;;15.30;99.90;;;;;;5000782;28;20038;-76
2023/08/30 03:12:32;;;;;;;6.25;3.75;;;15.20;99.90;;;;;;5007352;28;20049;-76
2023/08/30 03:14:59;;;;;;;3.67;3.38;;;15.20;99.90;;;;;;4994753;28;20050;-76
2023/08/30 03:17:26;;;;;;;4.43;3.60;;;15.10;99.90;;;;;;5004034;28;20649;-76
2023/08/30 03:19:54;;;;;;;3.95;3.55;;;15.20;99.90;;;;;;5006883;28;20053;-76
2023/08/30 03:22:21;;;;;;;4.03;3.10;;;15.10;99.90;;;;;;5006822;28;20053;-76
2023/08/30 03:24:49;;;;;;;4.18;3.67;;;15.10;99.90;;;;;;5001243;28;20077;-77
2023/08/30 03:27:16;;;;;;;3.72;3.15;;;15.10;99.90;;;;;;5007729;28;20060;-78
2023/08/30 03:29:43;;;;;;;3.50;3.20;;;15.00;99.90;;;;;;5013835;28;20096;-78
2023/08/30 03:32:10;;;;;;;5.55;3.38;;;15.00;99.90;;;;;;5004090;28;20099;-78
2023/08/30 03:34:37;;;;;;;6.25;3.80;;;15.00;99.90;;;;;;5005257;28;20057;-78
2023/08/30 03:37:03;;;;;;;4.38;3.97;;;14.90;99.90;;;;;;5011572;28;20050;-78
2023/08/30 03:39:31;;;;;;;4.47;3.80;;;14.90;99.90;;;;;;5001003;28;20073;-78
2023/08/30 03:41:58;;;;;;;4.90;3.63;;;14.90;99.90;;;;;;5009479;28;20433;-78
2023/08/30 03:44:24;;;;;;;6.45;3.72;;;14.90;99.90;;;;;;5013122;28;20046;-78
2023/08/30 03:46:51;;;;;;;3.97;3.67;;;14.90;99.90;;;;;;5005845;28;20093;-78
2023/08/30 03:49:18;;;;;;;5.80;4.05;;;14.90;99.90;;;;;;5006208;28;20046;-78
2023/08/30 03:51:45;;;;;;;3.45;3.15;;;14.90;99.90;;;;;;5011776;28;20472;-79
2023/08/30 03:54:16;;;;;;;4.05;3.47;;;14.80;99.90;;;;;;4999855;28;20417;-78
2023/08/30 03:56:43;;;;;;;6.47;3.60;;;14.80;99.90;;;;;;5009730;28;20524;-79
2023/08/30 03:59:11;;;;;;;4.75;3.50;;;14.80;99.90;;;;;;5008180;28;20139;-79
2023/08/30 04:01:38;;;;;;;8.13;3.92;;;14.80;99.90;;;;;;5008777;28;20050;-79
2023/08/30 04:04:05;;;;;;;4.28;3.47;;;14.80;99.90;;;;;;5010786;28;20070;-79
2023/08/30 04:06:32;;;;;;;5.03;4.22;;;14.80;99.90;;;;;;5021359;28;20065;-79
2023/08/30 04:08:58;;;;;;;4.97;3.85;;;14.80;99.90;;;;;;5017224;28;20110;-79
2023/08/30 04:11:25;;;;;;;4.00;3.45;;;14.80;99.90;;;;;;5013461;28;20073;-78
2023/08/30 04:13:52;;;;;;;5.70;3.70;;;14.80;99.90;;;;;;5010387;28;20498;-78
2023/08/30 04:16:19;;;;;;;4.78;3.97;;;14.80;99.90;;;;;;5006371;28;20057;-78
2023/08/30 04:18:46;;;;;;;4.88;4.05;;;14.80;99.90;;;;;;5003401;28;20081;-77
2023/08/30 04:21:12;;;;;;;5.80;3.60;;;14.80;99.90;;;;;;5009150;28;20050;-78
2023/08/30 04:23:39;;;;;;;4.15;3.78;;;14.80;99.90;;;;;;5006785;28;20082;-78
2023/08/30 04:26:06;;;;;;;8.35;4.03;;;14.80;99.90;;;;;;5008386;28;20486;-78
2023/08/30 04:28:32;;;;;;;5.93;4.00;;;14.80;99.90;;;;;;5008890;28;20116;-78
2023/08/30 04:30:59;;;;;;;5.45;3.40;;;14.80;99.90;;;;;;5011918;28;20054;-78
2023/08/30 04:33:26;;;;;;;7.80;3.75;;;14.80;99.90;;;;;;5001358;28;20054;-78
2023/08/30 04:35:54;;;;;;;4.28;3.85;;;14.80;99.90;;;;;;5006355;28;20564;-78
2023/08/30 04:38:21;;;;;;;4.30;3.80;;;14.80;99.90;;;;;;5012893;28;20509;-78
2023/08/30 04:40:48;;;;;;;4.15;3.75;;;14.80;99.90;;;;;;5006965;28;20045;-79
2023/08/30 04:43:15;;;;;;;4.22;3.42;;;14.80;99.90;;;;;;5008358;28;20037;-79
2023/08/30 04:45:42;;;;;;;6.03;3.70;;;14.80;99.90;;;;;;5011142;28;20046;-78
2023/08/30 04:48:11;;;;;;;5.65;3.72;;;14.80;99.90;;;;;;5001556;28;20053;-79
2023/08/30 04:50:38;;;;;;;3.72;3.35;;;14.90;99.90;;;;;;5007228;28;20126;-78
2023/08/30 04:53:05;;;;;;;3.60;3.30;;;14.90;99.90;;;;;;5013191;28;20064;-79
2023/08/30 04:55:32;;;;;;;6.88;3.75;;;14.90;99.90;;;;;;5004972;28;20526;-78
2023/08/30 04:57:59;;;;;;;5.50;3.53;;;14.90;99.90;;;;;;5007933;28;20097;-78
2023/08/30 05:00:25;;;;;;;7.50;3.38;;;14.90;99.90;;;;;;5011709;28;20050;-79
2023/08/30 05:02:52;;;;;;;3.90;3.50;;;15.00;99.90;;;;;;5001272;28;20057;-78
2023/08/30 05:05:19;;;;;;;4.93;3.65;;;15.00;99.90;;;;;;5005151;28;20065;-79
2023/08/30 05:07:46;;;;;;;7.38;3.70;;;15.00;99.90;;;;;;5012056;28;20100;-79
2023/08/30 05:10:13;;;;;;;5.10;4.03;;;15.00;99.90;;;;;;5004711;28;20088;-78
2023/08/30 05:12:40;;;;;;;4.20;3.80;;;15.00;99.90;;;;;;5005999;28;20464;-78
2023/08/30 05:15:07;;;;;;;4.68;3.75;;;15.00;99.90;;;;;;5011367;28;20058;-78
2023/08/30 05:17:34;;;;;;;5.00;3.70;;;15.10;99.90;;;;;;5003503;28;20045;-78
2023/08/30 05:20:01;;;;;;;4.50;3.70;;;15.10;99.90;;;;;;5004193;28;20060;-79
2023/08/30 05:22:27;;;;;;;9.63;4.35;;;15.10;99.90;;;;;;5012626;28;20050;-78
2023/08/30 05:24:54;;;;;;;6.00;4.78;;;15.20;99.90;;;;;;5007324;28;20046;-78
2023/08/30 05:27:21;;;;;;;4.78;3.65;;;15.20;99.90;;;;;;5006060;28;20046;-79
2023/08/30 05:29:48;;;;;;;6.32;3.50;;;15.20;99.90;;;;;;5011805;28;20113;-79
2023/08/30 05:32:14;;;;;;;6.22;4.05;;;15.30;99.90;;;;;;5006268;28;20046;-78
2023/08/30 05:34:41;;;;;;;7.65;4.50;;;15.30;99.90;;;;;;4987256;28;20085;-79
2023/08/30 05:37:08;;;;;;;5.75;4.13;;;15.30;99.90;;;;;;5014690;28;20053;-79
2023/08/30 05:39:35;;;;;;;4.90;4.03;;;15.30;99.90;;;;;;5012193;28;20050;-78
2023/08/30 05:42:02;;;;;;;4.00;3.70;;;15.30;99.90;;;;;;5009135;28;20046;-79
2023/08/30 05:44:29;;;;;;;4.53;3.85;;;15.30;99.90;;;;;;5014321;28;20069;-79
2023/08/30 05:46:56;;;;;;;4.65;3.55;;;15.30;99.90;;;;;;5010819;28;20053;-77
2023/08/30 05:49:23;;;;;;;5.82;3.40;;;15.30;99.90;;;;;;5009926;28;20050;-79
2023/08/30 05:51:49;;;;;;;5.35;3.88;;;15.30;99.90;;;;;;5000428;28;20518;-79
2023/08/30 05:54:16;;;;;;;9.65;3.92;;;15.30;99.90;;;;;;5018680;28;20323;-79
2023/08/30 05:56:43;;;;;;;8.50;4.20;;;15.30;99.90;;;;;;5009377;28;20046;-79
2023/08/30 05:59:10;;;;;;;4.10;3.28;;;15.40;99.90;;;;;;5011617;28;20057;-79
2023/08/30 06:01:37;;;;;;;5.30;3.65;;;15.40;99.90;;;;;;5010875;28;20050;-79
2023/08/30 06:04:04;;;;;;;9.02;3.92;;;15.40;99.90;;;;;;5006904;28;20050;-79
2023/08/30 06:06:31;;;;;;;4.80;3.63;;;15.50;99.90;;;;;;5014206;28;20592;-78
2023/08/30 06:08:58;;;;;;;7.10;4.00;;;15.50;99.90;;;;;;5016675;28;20452;-77
2023/08/30 06:11:25;;;;;;;3.80;3.50;;;15.50;99.90;;;;;;5007886;28;20344;-78
2023/08/30 06:13:51;;;;;;;5.57;3.92;;;15.50;99.90;;;;;;5009254;28;20100;-78
2023/08/30 06:16:18;;;;;;;4.93;3.60;;;15.50;99.90;;;;;;5014281;28;20058;-78
2023/08/30 06:18:45;;;;;;;9.85;3.65;;;15.60;99.90;;;;;;5005049;28;20082;-77
2023/08/30 06:21:11;;;;;;;5.80;3.80;;;15.60;99.90;;;;;;5011163;28;20049;-77
2023/08/30 06:23:38;;;;;;;4.88;3.15;;;15.70;99.90;;;;;;5013101;28;20104;-77
2023/08/30 06:26:05;;;;;;;7.47;3.50;;;15.80;99.90;;;;;;5003542;28;20050;-78
2023/08/30 06:28:31;;;;;;;6.88;3.47;;;15.80;99.90;;;;;;5008421;28;20057;-77
2023/08/30 06:30:58;;;;;;;3.35;3.08;;;15.90;99.90;;;;;;5016443;28;20104;-77
2023/08/30 06:33:25;;;;;;;4.40;3.65;;;15.90;99.90;;;;;;4990935;28;20049;-79
2023/08/30 06:35:53;;;;;;;5.70;3.47;;;15.90;99.90;;;;;;5011636;28;20046;-77
2023/08/30 06:38:20;;;;;;;7.22;3.55;;;16.00;99.90;;;;;;5015632;28;20084;-78
2023/08/30 06:40:47;;;;;;;4.38;3.30;;;16.00;99.90;;;;;;5006762;28;20133;-78
2023/08/30 06:43:14;;;;;;;5.95;3.78;;;16.00;99.90;;;;;;5011660;28;20513;-79
2023/08/30 06:45:42;;;;;;;6.18;3.80;;;16.00;99.90;;;;;;5018877;28;20045;-79
2023/08/30 06:48:09;;;;;;;3.60;3.20;;;16.00;99.90;;;;;;5015021;28;20129;-79
2023/08/30 06:50:36;;;;;;;5.03;3.25;;;16.00;99.90;;;;;;4996900;28;20106;-79
2023/08/30 06:53:03;;;;;;;4.63;3.25;;;16.10;99.90;;;;;;4999474;28;20054;-78
2023/08/30 06:55:31;;;;;;;8.02;4.25;;;16.10;99.90;;;;;;5009754;28;20047;-78
2023/08/30 06:57:59;;;;;;;4.60;2.80;;;16.20;99.90;;;;;;5011212;28;20058;-79
2023/08/30 07:00:26;;;;;;;4.72;3.28;;;16.20;99.90;;;;;;5017323;28;20061;-78
2023/08/30 07:02:52;;;;;;;7.93;3.33;;;16.20;99.90;;;;;;5014044;28;20046;-79
2023/08/30 07:05:19;;;;;;;2.97;2.72;;;16.30;99.90;;;;;;5015003;28;20045;-79
2023/08/30 07:07:46;;;;;;;7.43;2.63;;;16.30;99.90;;;;;;5017882;28;20050;-79
2023/08/30 07:10:13;;;;;;;3.38;2.50;;;16.40;99.90;;;;;;5015053;28;20115;-79
2023/08/30 07:12:39;;;;;;;2.25;2.05;;;16.40;99.90;;;;;;5008763;28;20056;-79
2023/08/30 07:15:07;;;;;;;2.40;2.10;;;16.50;99.90;;;;;;5014311;28;20417;-78
2023/08/30 07:17:33;;;;;;;2.60;2.22;;;16.50;99.90;;;;;;5018561;28;20054;-79
2023/08/30 07:20:19;;;;;;;4.63;2.85;;;16.60;99.90;;;;;;5014953;28;20045;-79
2023/08/30 07:22:46;;;;;;;4.55;2.60;;;16.60;99.90;;;;;;5018823;28;20089;-79
2023/08/30 07:25:13;;;;;;;2.60;2.20;;;16.70;99.90;;;;;;5014015;28;20057;-79
2023/08/30 07:27:40;;;;;;;2.20;2.00;;;16.70;99.90;;;;;;5007804;28;20042;-79
2023/08/30 07:30:10;;;;;;;3.63;2.50;;;16.80;99.90;;;;;;5015643;28;20551;-79
2023/08/30 07:32:37;;;;;;;4.88;2.35;;;16.80;99.90;;;;;;5017210;28;20506;-78
2023/08/30 07:35:05;;;;;;;2.15;1.95;;;16.90;99.90;;;;;;5011492;28;20454;-79
2023/08/30 07:37:32;;;;;;;5.97;2.13;;;16.90;99.90;;;;;;4998788;28;20141;-79
2023/08/30 07:39:58;;;;;;;2.65;1.90;;;17.00;99.90;;;;;;4996683;28;20081;-79
2023/08/30 07:42:25;;;;;;;3.03;2.38;;;17.00;99.90;;;;;;5008488;28;20097;-78
2023/08/30 07:44:52;;;;;;;2.20;2.00;;;17.00;99.90;;;;;;5014055;28;20501;-79
2023/08/30 07:47:19;;;;;;;2.45;2.10;;;17.10;99.90;;;;;;5019314;28;20049;-79
2023/08/30 07:49:46;;;;;;;4.80;2.42;;;17.10;99.90;;;;;;5010331;28;20054;-79
2023/08/30 07:52:12;;;;;;;2.95;2.47;;;17.10;99.90;;;;;;5013644;28;20050;-79
2023/08/30 07:54:40;;;;;;;2.20;2.00;;;17.20;99.90;;;;;;5013590;28;20046;-79
2023/08/30 07:57:07;;;;;;;3.55;2.60;;;17.20;99.90;;;;;;5005073;28;20433;-79
2023/08/30 07:59:36;;;;;;;4.35;2.42;;;17.20;99.90;;;;;;5010600;28;20115;-78
2023/08/30 08:02:07;;;;;;;3.15;2.35;;;17.20;99.90;;;;;;5011244;28;20045;-78
2023/08/30 08:04:37;;;;;;;2.25;2.03;;;17.20;99.90;;;;;;5001086;28;20065;-77
2023/08/30 08:07:04;;;;;;;3.40;2.78;;;17.30;99.90;;;;;;5004232;28;20054;-77
2023/08/30 08:09:32;;;;;;;3.45;2.40;;;17.30;99.90;;;;;;5009369;28;20049;-78
2023/08/30 08:11:58;;;;;;;2.70;2.50;;;17.30;99.90;;;;;;4997693;28;20616;-78
2023/08/30 08:14:25;;;;;;;3.90;2.40;;;17.30;99.90;;;;;;5007866;28;20100;-78
2023/08/30 08:16:52;;;;;;;3.72;2.38;;;17.30;99.90;;;;;;5010106;28;20058;-78
2023/08/30 08:19:21;;;;;;;4.00;2.38;;;17.30;99.90;;;;;;5001655;28;20096;-78
2023/08/30 08:21:54;;;;;;;2.78;2.17;;;17.40;99.90;;;;;;5003798;28;20137;-78
2023/08/30 08:24:21;;;;;;;2.63;2.15;;;17.50;99.90;;;;;;5019869;28;20049;-77
2023/08/30 08:26:48;;;;;;;3.30;2.47;;;17.50;99.90;;;;;;4990369;28;20057;-78
2023/08/30 08:29:15;;;;;;;4.30;2.42;;;17.50;99.90;;;;;;5011918;28;20108;-77
2023/08/30 08:31:42;;;;;;;3.80;2.17;;;17.50;99.90;;;;;;5010212;28;20536;-78
2023/08/30 08:34:11;;;;;;;2.80;2.33;;;17.60;99.90;;;;;;5001883;28;20140;-78
2023/08/30 08:36:39;;;;;;;4.32;2.28;;;17.60;99.90;;;;;;4999709;28;20050;-79
2023/08/30 08:39:06;;;;;;;2.80;2.00;;;17.60;99.90;;;;;;5008646;28;20049;-78
2023/08/30 08:41:39;;;;;;;3.63;1.80;;;17.70;99.90;;;;;;5009978;28;20517;-78
2023/08/30 08:44:07;;;;;;;3.78;1.92;;;17.80;99.90;;;;;;5005570;28;20042;-78
2023/08/30 08:46:38;;;;;;;2.17;1.75;;;17.90;99.90;;;;;;5008242;28;20046;-77
2023/08/30 08:49:10;;;;;;;3.00;2.13;;;18.10;99.90;;;;;;5001065;28;20050;-79
2023/08/30 08:51:38;;;;;;;2.08;1.65;;;18.20;99.90;;;;;;4978908;28;20050;-78
2023/08/30 08:54:05;;;;;;;1.98;1.67;;;18.30;99.90;;;;;;5007222;28;20077;-78
2023/08/30 08:56:33;;;;;;;2.70;1.75;;;18.40;99.90;;;;;;5008095;28;20050;-78
2023/08/30 08:59:01;;;;;;;2.33;1.67;;;18.50;99.90;;;;;;5004674;28;20046;-77
2023/08/30 09:01:28;;;;;;;2.03;1.83;;;18.60;99.90;;;;;;5008218;28;20517;-77
2023/08/30 09:04:10;;;;;;;2.70;1.95;;;18.70;99.90;;;;;;5000726;28;20050;-77
2023/08/30 09:06:39;;;;;;;3.88;1.63;;;18.70;99.90;;;;;;4999166;28;20133;-78
2023/08/30 09:09:08;;;;;;;2.28;1.63;;;18.80;99.90;;;;;;5008680;28;20045;-78
2023/08/30 09:11:35;;;;;;;3.45;2.00;;;18.70;99.90;;;;;;5006942;28;20048;-77
2023/08/30 09:14:16;;;;;;;3.58;2.03;;;18.70;99.90;;;;;;5003841;28;20082;-78
2023/08/30 09:16:53;;;;;;;5.53;1.95;;;18.70;99.90;;;;;;5006792;28;20052;-78
2023/08/30 09:19:21;;;;;;;3.28;1.77;;;18.80;99.90;;;;;;5003262;28;20050;-77
2023/08/30 09:21:56;;;;;;;3.78;1.85;;;18.80;99.90;;;;;;5002082;28;20417;-77
2023/08/30 09:24:23;;;;;;;3.63;1.58;;;18.90;99.90;;;;;;5008876;28;20498;-78
2023/08/30 09:26:52;;;;;;;2.03;1.60;;;18.90;99.90;;;;;;4987117;28;20043;-78
2023/08/30 09:29:21;;;;;;;2.75;1.77;;;18.90;99.90;;;;;;4986516;28;20053;-78
2023/08/30 09:31:52;;;;;;;1.73;1.60;;;19.00;99.90;;;;;;5006454;28;20042;-76
2023/08/30 09:34:26;;;;;;;2.55;1.77;;;19.00;99.90;;;;;;4981683;28;20057;-78
2023/08/30 09:36:53;;;;;;;1.75;1.65;;;19.00;99.90;;;;;;5001541;28;20487;-78
2023/08/30 09:39:20;;;;;;;2.30;1.83;;;19.10;99.90;;;;;;5010336;28;20096;-76
2023/08/30 09:41:49;;;;;;;2.13;1.92;;;19.10;99.90;;;;;;5001479;28;20569;-78
2023/08/30 09:44:20;;;;;;;4.90;1.92;;;19.10;99.90;;;;;;5003524;28;20074;-78
2023/08/30 09:46:52;;;;;;;2.03;1.92;;;19.20;99.90;;;;;;5006395;28;20072;-78
2023/08/30 09:49:25;;;;;;;9.80;3.60;;;19.20;99.90;;;;;;5001478;28;20043;-78
2023/08/30 09:51:53;;;;;;;2.10;1.83;;;19.20;99.90;;;;;;5001286;28;20048;-78
2023/08/30 09:54:24;;;;;;;2.65;1.90;;;19.30;99.90;;;;;;5009591;28;20050;-77
2023/08/30 09:56:57;;;;;;;3.20;1.80;;;19.30;99.90;;;;;;5004531;28;20050;-77
2023/08/30 09:59:24;;;;;;;;;;;19.40;99.90;;;;;;5003539;28;20125;-78
2023/08/30 10:01:53;;;;;;;2.20;2.00;;;19.40;99.90;;;;;;5007304;28;20321;-77
2023/08/30 10:04:21;;;;;;;2.80;2.08;;;19.50;99.90;;;;;;4984412;28;20045;-77
2023/08/30 10:06:49;;;;;;;2.72;1.83;;;19.60;99.90;;;;;;5005698;28;20497;-77
2023/08/30 10:09:16;;;;;;;2.70;1.77;;;19.60;99.90;;;;;;5012635;28;20046;-78
2023/08/30 10:11:46;;;;;;;4.65;2.20;;;19.70;99.90;;;;;;5008101;28;20077;-78
2023/08/30 10:14:14;;;;;;;2.03;1.80;;;19.90;99.90;;;;;;5003372;28;20050;-78
2023/08/30 10:16:46;;;;;;;5.95;2.28;;;19.90;99.90;;;;;;5010681;28;20080;-78
2023/08/30 10:19:25;;;;;;;2.85;2.10;;;20.00;99.90;;;;;;4992100;28;20054;-78
2023/08/30 10:22:04;;;;;;;1.75;1.40;;;20.00;99.90;;;;;;5008837;28;20120;-78
2023/08/30 10:24:37;;;;;;;2.47;1.65;;;20.10;99.90;;;;;;5012090;28;20038;-78
2023/08/30 10:27:26;;;;;;;2.25;1.70;;;20.20;99.90;;;;;;4991282;28;20138;-78
2023/08/30 10:29:54;;;;;;;2.17;1.40;;;20.10;99.90;;;;;;5005694;28;20468;-77
2023/08/30 10:32:22;;;;;;;2.13;1.88;;;20.20;99.90;;;;;;5011939;28;20112;-78
2023/08/30 10:34:50;;;;;;;2.78;1.65;;;20.10;99.90;;;;;;5004577;28;20062;-78
2023/08/30 10:37:26;;;;;;;2.13;1.80;;;20.10;99.90;;;;;;5008826;28;20560;-78
2023/08/30 10:39:59;;;;;;;2.03;1.83;;;20.10;99.90;;;;;;5011313;28;20052;-78
2023/08/30 10:42:25;;;;;;;2.97;1.65;;;20.00;99.90;;;;;;5017352;28;20062;-77
2023/08/30 10:44:57;;;;;;;1.88;1.77;;;19.90;99.90;;;;;;5014686;28;20464;-78
2023/08/30 10:47:40;;;;;;;2.05;1.88;;;19.90;99.90;;;;;;5009410;28;20115;-77
2023/08/30 10:50:10;;;;;;;2.38;1.90;;;19.90;99.90;;;;;;4998424;28;20038;-78
2023/08/30 10:52:37;;;;;;;2.88;2.00;;;19.80;99.90;;;;;;5004922;28;20048;-78
2023/08/30 10:55:12;;;;;;;4.97;2.22;;;19.80;99.90;;;;;;5009746;28;20096;-78
2023/08/30 10:57:43;;;;;;;2.20;1.85;;;19.70;99.90;;;;;;5001862;28;20052;-76
2023/08/30 11:00:22;;;;;;;3.45;1.80;;;19.70;99.90;;;;;;5003763;28;20108;-77
2023/08/30 11:02:50;;;;;;;2.38;1.70;;;19.70;99.90;;;;;;5011199;28;20046;-78
2023/08/30 11:05:22;;;;;;;3.10;1.90;;;19.70;99.90;;;;;;5007786;28;20077;-78
2023/08/30 11:07:50;;;;;;;2.60;2.08;;;19.70;99.90;;;;;;5006689;28;20069;-77
2023/08/30 11:10:18;;;;;;;2.35;2.05;;;19.80;99.90;;;;;;5010885;28;20046;-77
2023/08/30 11:12:46;;;;;;;2.00;1.80;;;19.70;99.90;;;;;;5003278;28;20042;-78
2023/08/30 11:15:14;;;;;;;2.47;1.80;;;19.80;99.90;;;;;;4986909;28;20480;-78
2023/08/30 11:17:42;;;;;;;4.97;1.60;;;19.80;99.90;;;;;;5009262;28;20042;-77
2023/08/30 11:20:13;;;;;;;1.67;1.50;;;19.80;99.90;;;;;;5001143;28;20133;-77
2023/08/30 11:22:43;;;;;;;2.40;1.58;;;19.90;99.90;;;;;;5003957;28;20405;-78
2023/08/30 11:25:11;;;;;;;3.17;1.48;;;19.90;99.90;;;;;;5006576;28;20064;-78
2023/08/30 11:27:38;;;;;;;1.95;1.63;;;20.00;99.90;;;;;;5000424;28;20486;-78
2023/08/30 11:30:08;;;;;;;2.08;1.60;;;20.10;99.90;;;;;;5003857;28;20105;-77
2023/08/30 11:32:35;;;;;;;2.63;1.53;;;20.10;99.90;;;;;;5009889;28;20046;-77
2023/08/30 11:35:03;;;;;;;1.60;1.35;;;20.20;99.90;;;;;;5007007;28;20592;-78
2023/08/30 11:37:30;;;;;;;1.77;1.10;;;20.30;99.90;;;;;;5007065;28;20096;-77
2023/08/30 11:39:58;;;;;;;1.42;1.30;;;20.30;99.90;;;;;;5007758;28;20046;-78
2023/08/30 11:42:25;;;;;;;3.72;1.70;;;20.30;99.90;;;;;;5003777;28;20061;-78
2023/08/30 11:44:53;;;;;;;2.75;1.15;;;20.40;99.90;;;;;;5002264;28;20515;-78
2023/08/30 11:47:25;;;;;;;2.70;1.00;;;20.50;99.90;;;;;;5010482;28;20128;-78
2023/08/30 11:49:56;;;;;;;1.58;1.23;;;20.50;99.90;;;;;;5007693;28;20515;-78
2023/08/30 11:52:24;;;;;;;2.55;1.30;;;20.60;99.90;;;;;;5004952;28;20427;-78
2023/08/30 11:54:51;;;;;;;2.78;1.40;;;20.60;99.90;;;;;;4991249;28;20050;-78
2023/08/30 11:57:19;;;;;;;3.50;1.42;;;20.70;99.90;;;;;;5007174;28;20502;-77
2023/08/30 11:59:47;;;;;;;3.30;1.50;;;20.70;99.90;;;;;;4999152;28;20498;-78
2023/08/30 12:02:17;;;;;;;4.45;1.55;;;20.70;99.90;;;;;;5009431;28;20076;-78
2023/08/30 12:04:45;;;;;;;2.27;1.50;;;20.60;99.90;;;;;;5007861;28;20046;-78
2023/08/30 12:07:23;;;;;;;1.60;1.20;;;20.60;99.90;;;;;;5002830;28;20509;-78
2023/08/30 12:09:51;;;;;;;5.47;1.25;;;20.70;99.90;;;;;;5007588;28;20042;-77
2023/08/30 12:12:17;;;;;;;3.78;1.50;;;20.70;99.90;;;;;;5006910;28;20038;-78
2023/08/30 12:14:44;;;;;;;1.35;1.20;;;20.80;99.90;;;;;;5000305;28;20041;-77
2023/08/30 12:17:12;;;;;;;2.20;1.30;;;20.90;99.90;;;;;;5007985;28;20073;-78
2023/08/30 12:19:42;;;;;;;3.83;1.10;;;21.00;99.90;;;;;;5012215;28;20045;-78
2023/08/30 12:22:08;;;;;;;2.23;1.50;;;21.10;99.90;;;;;;5003552;28;20123;-78
2023/08/30 12:24:45;;;;;;;3.45;1.23;;;21.30;99.90;;;;;;5006564;28;20054;-78
2023/08/30 12:27:15;;;;;;;1.75;1.30;;;21.30;99.90;;;;;;5006455;28;20042;-78
2023/08/30 12:29:42;;;;;;;2.65;1.10;;;21.40;99.90;;;;;;5003342;28;20464;-78
2023/08/30 12:32:08;;;;;;;2.83;1.30;;;21.50;99.90;;;;;;5009384;28;20077;-77
2023/08/30 12:34:35;;;;;;;3.47;1.10;;;21.50;99.90;;;;;;5010344;28;20050;-78
2023/08/30 12:37:03;;;;;;;1.40;1.27;;;21.40;99.90;;;;;;5002155;28;20053;-78
2023/08/30 12:39:31;;;;;;;9.27;1.83;;;21.40;99.90;;;;;;5006503;28;20049;-78
2023/08/30 12:41:58;;;;;;;3.00;1.10;;;21.30;99.90;;;;;;5006230;28;20045;-78
2023/08/30 12:44:25;;;;;;;1.77;1.23;;;21.30;99.90;;;;;;5003204;28;20108;-78
2023/08/30 12:46:52;;;;;;;3.10;1.13;;;21.20;99.90;;;;;;5019190;28;20042;-78
2023/08/30 12:49:19;;;;;;;2.20;1.38;;;21.20;99.90;;;;;;5022821;28;20048;-78
2023/08/30 12:51:45;;;;;;;3.35;1.30;;;21.20;99.90;;;;;;5013107;28;20049;-77
2023/08/30 12:54:12;;;;;;;1.00;0.95;;;21.10;99.90;;;;;;5005253;28;20046;-77